createdAt,value
2023-03-06T00:00:17.611Z,4.45
2023-03-06T00:02:45.672Z,4.18
2023-03-06T00:05:14.059Z,5.28
2023-03-06T00:07:42.701Z,3.70
2023-03-06T00:10:14.261Z,3.95
2023-03-06T00:12:42.510Z,3.78
2023-03-06T00:15:13.092Z,4.35
2023-03-06T00:17:41.524Z,4.03
2023-03-06T00:20:11.691Z,4.38
2023-03-06T00:22:40.034Z,3.83
2023-03-06T00:25:12.369Z,3.67
2023-03-06T00:27:40.388Z,3.38
2023-03-06T00:30:09.841Z,4.13
2023-03-06T00:32:39.293Z,3.60
2023-03-06T00:35:08.177Z,2.47
2023-03-06T00:37:36.884Z,3.15
2023-03-06T00:40:06.245Z,2.42
2023-03-06T00:42:34.170Z,2.97
2023-03-06T00:45:02.086Z,2.50
2023-03-06T00:47:29.958Z,2.72
2023-03-06T00:50:00.464Z,2.10
2023-03-06T00:52:28.466Z,2.85
2023-03-06T00:54:56.416Z,2.95
2023-03-06T00:57:24.467Z,2.75
2023-03-06T00:59:52.385Z,2.10
2023-03-06T01:02:22.159Z,2.20
2023-03-06T01:04:50.231Z,2.47
2023-03-06T01:07:19.458Z,2.17
2023-03-06T01:09:47.350Z,2.38
2023-03-06T01:12:16.145Z,2.40
2023-03-06T01:14:44.090Z,1.65
2023-03-06T01:17:12.142Z,1.55
2023-03-06T01:19:40.069Z,1.63
2023-03-06T01:22:07.976Z,1.63
2023-03-06T01:24:37.211Z,1.83
2023-03-06T01:27:05.112Z,1.60
2023-03-06T01:29:33.061Z,1.83
2023-03-06T01:32:01.006Z,2.17
2023-03-06T01:34:29.095Z,1.77
2023-03-06T01:36:56.958Z,2.38
2023-03-06T01:39:25.002Z,2.58
2023-03-06T01:41:54.512Z,2.13
2023-03-06T01:44:23.344Z,1.90
2023-03-06T01:46:51.324Z,2.40
2023-03-06T01:49:22.108Z,1.98
2023-03-06T01:51:53.982Z,2.47
2023-03-06T01:54:25.032Z,2.35
2023-03-06T01:56:57.695Z,2.38
2023-03-06T01:59:27.516Z,2.58
2023-03-06T02:01:57.030Z,3.05
2023-03-06T02:04:25.681Z,2.60
2023-03-06T02:06:53.934Z,3.30
2023-03-06T02:09:21.874Z,3.67
2023-03-06T02:11:50.654Z,3.67
2023-03-06T02:14:19.935Z,4.15
2023-03-06T02:16:48.926Z,4.85
2023-03-06T02:19:29.469Z,3.67
2023-03-06T02:21:57.733Z,3.15
2023-03-06T02:24:36.040Z,4.05
2023-03-06T02:27:06.745Z,3.45
2023-03-06T02:29:34.741Z,4.20
2023-03-06T02:32:04.714Z,4.30
2023-03-06T02:34:51.539Z,3.63
2023-03-06T02:37:19.829Z,3.47
2023-03-06T02:39:53.036Z,2.65
2023-03-06T02:42:25.911Z,3.25
2023-03-06T02:44:56.689Z,3.60
2023-03-06T02:47:24.603Z,2.20
2023-03-06T02:49:52.583Z,2.75
2023-03-06T02:52:20.548Z,2.45
2023-03-06T02:54:48.618Z,2.92
2023-03-06T02:57:16.705Z,2.70
2023-03-06T02:59:45.990Z,3.15
2023-03-06T03:02:13.975Z,3.15
2023-03-06T03:04:41.905Z,2.65
2023-03-06T03:07:10.388Z,3.15
2023-03-06T03:09:38.993Z,2.90
2023-03-06T03:12:07.779Z,3.00
2023-03-06T03:14:36.004Z,2.95
2023-03-06T03:17:05.952Z,2.88
2023-03-06T03:19:33.905Z,2.55
2023-03-06T03:22:01.952Z,2.33
2023-03-06T03:24:29.889Z,2.85
2023-03-06T03:26:57.852Z,1.58
2023-03-06T03:29:26.520Z,2.67
2023-03-06T03:31:55.273Z,2.53
2023-03-06T03:34:27.552Z,2.88
2023-03-06T03:36:55.777Z,1.77
2023-03-06T03:39:24.047Z,1.75
2023-03-06T03:41:52.058Z,2.45
2023-03-06T03:44:20.752Z,2.55
2023-03-06T03:46:49.678Z,2.00
2023-03-06T03:49:21.642Z,1.73
2023-03-06T03:51:51.328Z,2.05
2023-03-06T03:54:20.183Z,1.40
2023-03-06T03:56:50.376Z,1.90
2023-03-06T03:59:24.438Z,2.05
2023-03-06T04:02:18.424Z,2.42
2023-03-06T04:04:54.182Z,1.95
2023-03-06T04:07:23.682Z,1.80
2023-03-06T04:09:51.793Z,1.70
2023-03-06T04:12:20.028Z,1.92
2023-03-06T04:14:48.562Z,1.77
2023-03-06T04:17:16.745Z,1.45
2023-03-06T04:19:45.412Z,2.60
2023-03-06T04:22:13.508Z,2.90
2023-03-06T04:24:42.963Z,2.22
2023-03-06T04:27:11.180Z,2.80
2023-03-06T04:29:39.104Z,2.65
2023-03-06T04:32:08.005Z,3.10
2023-03-06T04:34:36.035Z,2.70
2023-03-06T04:37:04.071Z,2.92
2023-03-06T04:39:34.183Z,2.58
2023-03-06T04:42:03.663Z,2.35
2023-03-06T04:44:31.543Z,2.30
2023-03-06T04:46:59.410Z,2.40
2023-03-06T04:49:27.291Z,2.75
2023-03-06T04:51:55.140Z,3.10
2023-03-06T04:54:23.077Z,3.10
2023-03-06T04:56:51.051Z,3.72
2023-03-06T04:59:20.350Z,3.53
2023-03-06T05:01:48.293Z,3.42
2023-03-06T05:04:16.227Z,3.53
2023-03-06T05:06:44.172Z,2.40
2023-03-06T05:09:12.132Z,3.53
2023-03-06T05:11:40.010Z,3.17
2023-03-06T05:14:07.971Z,2.75
2023-03-06T05:16:37.329Z,3.38
2023-03-06T05:19:05.306Z,2.80
2023-03-06T05:21:33.196Z,3.17
2023-03-06T05:24:01.077Z,3.15
2023-03-06T05:26:28.999Z,3.85
2023-03-06T05:28:56.904Z,3.13
2023-03-06T05:31:24.957Z,3.75
2023-03-06T05:33:56.201Z,3.08
2023-03-06T05:36:24.137Z,3.13
2023-03-06T05:38:52.054Z,3.53
2023-03-06T05:41:20.042Z,3.28
2023-03-06T05:43:48.565Z,3.03
2023-03-06T05:46:16.530Z,2.53
2023-03-06T05:48:46.784Z,3.08
2023-03-06T05:51:16.364Z,4.47
2023-03-06T05:53:44.332Z,4.07
2023-03-06T05:56:12.324Z,4.18
2023-03-06T05:58:40.852Z,4.07
2023-03-06T06:01:10.907Z,3.70
2023-03-06T06:03:39.220Z,3.75
2023-03-06T06:06:08.820Z,4.68
2023-03-06T06:08:38.261Z,3.70
2023-03-06T06:11:06.670Z,3.95
2023-03-06T06:13:34.747Z,4.32
2023-03-06T06:16:08.559Z,5.15
2023-03-06T06:18:37.316Z,4.45
2023-03-06T06:21:07.813Z,3.97
2023-03-06T06:23:35.925Z,5.28
2023-03-06T06:26:07.798Z,4.40
2023-03-06T06:28:36.085Z,3.80
2023-03-06T06:31:10.947Z,4.50
2023-03-06T06:33:39.100Z,3.97
2023-03-06T06:36:15.294Z,4.32
2023-03-06T06:38:44.173Z,4.95
2023-03-06T06:44:07.247Z,4.47
2023-03-06T06:47:20.738Z,4.70
2023-03-06T06:49:25.226Z,4.43
2023-03-06T06:51:53.167Z,4.57
2023-03-06T06:54:22.319Z,2.95
2023-03-06T06:56:51.707Z,2.65
2023-03-06T06:59:19.718Z,2.20
2023-03-06T07:01:47.810Z,2.05
2023-03-06T07:04:19.096Z,1.70
2023-03-06T07:06:47.697Z,1.70
2023-03-06T07:09:16.088Z,1.50
2023-03-06T07:11:46.384Z,1.85
2023-03-06T07:14:15.827Z,1.73
2023-03-06T07:16:45.403Z,1.52
2023-03-06T07:19:14.407Z,3.38
2023-03-06T07:21:42.362Z,3.60
2023-03-06T07:24:13.370Z,3.67
2023-03-06T07:26:41.221Z,4.00
2023-03-06T07:29:09.077Z,4.07
2023-03-06T07:31:38.669Z,3.47
2023-03-06T07:34:06.674Z,4.60
2023-03-06T07:36:34.885Z,4.38
2023-03-06T07:39:02.834Z,4.82
2023-03-06T07:41:30.736Z,3.30
2023-03-06T07:43:58.718Z,4.10
2023-03-06T07:46:26.854Z,3.70
2023-03-06T07:48:56.437Z,3.30
2023-03-06T07:51:27.012Z,4.00
2023-03-06T07:53:55.379Z,3.50
2023-03-06T07:56:24.247Z,3.28
2023-03-06T07:58:56.112Z,2.28
2023-03-06T08:01:25.043Z,2.28
2023-03-06T08:03:53.673Z,3.60
2023-03-06T08:06:27.814Z,4.40
2023-03-06T08:08:56.975Z,3.40
2023-03-06T08:11:26.695Z,2.55
2023-03-06T08:13:56.567Z,3.60
2023-03-06T08:16:27.631Z,3.63
2023-03-06T08:18:56.145Z,2.38
2023-03-06T08:21:26.906Z,2.70
2023-03-06T08:23:57.222Z,2.92
2023-03-06T08:26:27.677Z,2.58
2023-03-06T08:28:57.196Z,3.25
2023-03-06T08:31:27.990Z,2.90
2023-03-06T08:33:57.602Z,2.65
2023-03-06T08:36:27.097Z,2.50
2023-03-06T08:38:55.436Z,3.75
2023-03-06T08:41:23.850Z,3.58
2023-03-06T08:43:52.537Z,3.22
2023-03-06T08:46:23.263Z,2.70
2023-03-06T08:48:51.229Z,3.25
2023-03-06T08:51:19.517Z,3.25
2023-03-06T08:53:49.290Z,2.78
2023-03-06T08:56:19.090Z,3.30
2023-03-06T08:58:47.982Z,3.03
2023-03-06T09:01:18.214Z,3.00
2023-03-06T09:03:46.789Z,3.33
2023-03-06T09:06:15.600Z,2.83
2023-03-06T09:08:44.570Z,3.00
2023-03-06T09:11:16.748Z,2.20
2023-03-06T09:13:45.152Z,2.88
2023-03-06T09:16:13.699Z,2.72
2023-03-06T09:18:41.745Z,2.10
2023-03-06T09:21:10.617Z,2.75
2023-03-06T09:23:40.014Z,2.42
2023-03-06T09:26:08.745Z,3.03
2023-03-06T09:28:39.250Z,2.55
2023-03-06T09:31:10.319Z,2.63
2023-03-06T09:33:40.025Z,2.83
2023-03-06T09:36:11.373Z,2.42
2023-03-06T09:38:39.456Z,2.05
2023-03-06T09:41:16.206Z,3.08
2023-03-06T09:43:48.100Z,1.60
2023-03-06T09:46:22.906Z,1.70
2023-03-06T09:49:10.270Z,1.65
2023-03-06T09:51:52.430Z,1.42
2023-03-06T09:54:27.785Z,2.03
2023-03-06T09:56:56.220Z,2.38
2023-03-06T09:59:27.106Z,3.25
2023-03-06T10:02:00.912Z,2.50
2023-03-06T10:04:37.776Z,1.48
2023-03-06T10:07:13.070Z,1.27
2023-03-06T10:09:47.734Z,1.20
2023-03-06T10:15:00.743Z,1.80
2023-03-06T10:17:35.540Z,1.38
2023-03-06T10:20:16.364Z,1.63
2023-03-06T10:23:01.409Z,1.20
2023-03-06T10:25:37.884Z,3.10
2023-03-06T10:28:16.554Z,12.07
2023-03-06T10:30:52.597Z,7.22
2023-03-06T10:33:34.301Z,1.95
2023-03-06T10:36:02.623Z,1.38
2023-03-06T10:38:37.651Z,2.38
2023-03-06T10:41:09.353Z,1.80
2023-03-06T10:43:38.914Z,1.90
2023-03-06T10:46:10.285Z,1.65
2023-03-06T10:48:42.014Z,2.20
2023-03-06T10:51:19.443Z,2.55
2023-03-06T10:53:53.718Z,2.10
2023-03-06T10:56:29.228Z,2.17
2023-03-06T10:59:09.134Z,2.40
2023-03-06T11:01:39.747Z,1.73
2023-03-06T11:04:24.153Z,1.88
2023-03-06T11:07:14.446Z,2.05
2023-03-06T11:09:43.246Z,1.67
2023-03-06T11:12:25.994Z,1.50
2023-03-06T11:15:17.431Z,1.20
2023-03-06T11:18:02.822Z,2.00
2023-03-06T11:20:50.146Z,1.50
2023-03-06T11:23:22.756Z,2.03
2023-03-06T11:25:56.168Z,1.38
2023-03-06T11:28:29.846Z,1.67
2023-03-06T11:31:03.089Z,1.48
2023-03-06T11:33:39.664Z,1.70
2023-03-06T11:36:16.994Z,1.30
2023-03-06T11:38:50.070Z,1.40
2023-03-06T11:41:27.902Z,1.63
2023-03-06T11:44:04.442Z,1.25
2023-03-06T11:46:38.064Z,1.95
2023-03-06T11:49:18.140Z,1.37
2023-03-06T11:51:55.751Z,1.83
2023-03-06T11:54:24.324Z,1.50
2023-03-06T11:56:57.690Z,1.50
2023-03-06T12:00:00.012Z,1.10
2023-03-06T12:02:40.327Z,1.10
2023-03-06T12:05:33.773Z,1.92
2023-03-06T12:08:16.142Z,1.30
2023-03-06T12:10:51.898Z,0.90
2023-03-06T12:13:59.513Z,1.50
2023-03-06T12:16:54.164Z,1.40
2023-03-06T12:19:34.241Z,1.90
2023-03-06T12:22:22.464Z,2.10
2023-03-06T12:25:20.283Z,1.92
2023-03-06T12:27:59.365Z,1.67
2023-03-06T12:30:54.754Z,1.25
2023-03-06T12:33:29.988Z,1.80
2023-03-06T12:36:13.275Z,1.27
2023-03-06T12:39:08.402Z,1.70
2023-03-06T12:44:49.984Z,2.35
2023-03-06T12:47:22.859Z,2.35
2023-03-06T12:49:55.941Z,2.53
2023-03-06T12:52:30.308Z,2.47
2023-03-06T12:57:29.162Z,3.20
2023-03-06T13:00:00.037Z,2.83
2023-03-06T13:02:59.359Z,2.35
2023-03-06T13:05:48.345Z,2.08
2023-03-06T13:08:52.754Z,2.13
2023-03-06T13:11:31.652Z,2.25
2023-03-06T13:13:59.687Z,1.17
2023-03-06T13:16:31.671Z,1.38
2023-03-06T13:19:04.874Z,1.50
2023-03-06T13:22:14.318Z,1.40
2023-03-06T13:24:43.901Z,0.98
2023-03-06T13:27:33.891Z,1.00
2023-03-06T13:30:24.308Z,0.90
2023-03-06T13:32:53.798Z,1.00
2023-03-06T13:35:52.504Z,0.75
2023-03-06T13:39:04.889Z,0.90
2023-03-06T13:41:55.015Z,0.68
2023-03-06T13:44:50.775Z,0.90
2023-03-06T13:48:05.864Z,0.80
2023-03-06T13:50:41.030Z,0.90
2023-03-06T13:53:41.715Z,0.90
2023-03-06T13:56:36.151Z,0.80
2023-03-06T13:59:27.002Z,1.20
2023-03-06T14:02:10.400Z,1.00
2023-03-06T14:04:45.139Z,0.90
2023-03-06T14:07:25.817Z,1.20
2023-03-06T14:10:02.162Z,1.70
2023-03-06T14:12:34.919Z,1.15
2023-03-06T14:15:07.191Z,0.75
2023-03-06T14:17:39.348Z,0.82
2023-03-06T14:20:16.555Z,1.23
2023-03-06T14:22:45.208Z,0.88
2023-03-06T14:25:20.773Z,1.05
2023-03-06T14:27:51.439Z,0.88
2023-03-06T14:30:24.223Z,1.30
2023-03-06T14:32:56.172Z,0.75
2023-03-06T14:35:28.579Z,0.80
2023-03-06T14:38:00.645Z,0.90
2023-03-06T14:40:35.150Z,0.90
2023-03-06T14:45:54.822Z,0.55
2023-03-06T14:48:25.791Z,0.73
2023-03-06T14:50:56.529Z,1.23
2023-03-06T14:53:28.288Z,1.17
2023-03-06T14:56:00.051Z,0.90
2023-03-06T14:58:32.360Z,1.00
2023-03-06T15:01:04.761Z,0.80
2023-03-06T15:03:43.801Z,0.70
2023-03-06T15:06:16.672Z,1.20
2023-03-06T15:08:47.109Z,0.70
2023-03-06T15:11:15.623Z,0.52
2023-03-06T15:13:43.634Z,1.10
2023-03-06T15:16:30.159Z,1.52
2023-03-06T15:19:02.376Z,1.20
2023-03-06T15:21:35.891Z,0.70
2023-03-06T15:24:26.146Z,0.60
2023-03-06T15:26:56.912Z,1.08
2023-03-06T15:29:25.009Z,0.80
2023-03-06T15:31:53.031Z,1.00
2023-03-06T15:34:24.761Z,1.23
2023-03-06T15:36:55.700Z,0.85
2023-03-06T15:39:36.340Z,0.82
2023-03-06T15:42:17.981Z,0.98
2023-03-06T15:44:49.803Z,0.73
2023-03-06T15:47:18.284Z,0.60
2023-03-06T15:49:51.722Z,0.82
2023-03-06T15:52:20.817Z,0.60
2023-03-06T15:54:50.010Z,0.63
2023-03-06T15:57:22.981Z,0.80
2023-03-06T15:59:52.295Z,0.73
2023-03-06T16:02:21.749Z,0.98
2023-03-06T16:04:51.909Z,1.58
2023-03-06T16:07:20.533Z,0.90
2023-03-06T16:09:48.688Z,1.05
2023-03-06T16:12:18.658Z,1.33
2023-03-06T16:14:48.242Z,1.67
2023-03-06T16:17:17.747Z,0.80
2023-03-06T16:19:45.881Z,0.70
2023-03-06T16:22:15.767Z,0.93
2023-03-06T16:24:43.774Z,0.50
2023-03-06T16:27:18.612Z,7.75
2023-03-06T16:29:46.603Z,0.75
2023-03-06T16:32:14.682Z,0.70
2023-03-06T16:34:42.637Z,1.00
2023-03-06T16:37:13.845Z,2.15
2023-03-06T16:39:43.591Z,1.33
2023-03-06T16:42:11.664Z,1.20
2023-03-06T16:44:39.692Z,2.50
2023-03-06T16:47:13.292Z,1.27
2023-03-06T16:49:41.400Z,0.63
2023-03-06T16:52:10.973Z,0.50
2023-03-06T16:54:38.965Z,0.77
2023-03-06T16:57:08.463Z,0.90
2023-03-06T16:59:36.529Z,0.73
2023-03-06T17:02:05.010Z,0.50
2023-03-06T17:04:33.151Z,0.90
2023-03-06T17:07:01.128Z,0.63
2023-03-06T17:09:29.328Z,1.13
2023-03-06T17:11:59.734Z,1.15
2023-03-06T17:14:29.825Z,0.90
2023-03-06T17:16:58.704Z,0.90
2023-03-06T17:19:26.675Z,1.30
2023-03-06T17:21:54.674Z,1.33
2023-03-06T17:24:22.746Z,1.35
2023-03-06T17:26:51.296Z,1.00
2023-03-06T17:29:19.568Z,1.27
2023-03-06T17:31:49.258Z,1.20
2023-03-06T17:34:17.328Z,1.20
2023-03-06T17:36:45.622Z,1.48
2023-03-06T17:39:13.830Z,1.13
2023-03-06T17:41:46.274Z,1.10
2023-03-06T17:44:16.379Z,1.20
2023-03-06T17:46:44.769Z,1.92
2023-03-06T17:49:14.120Z,1.33
2023-03-06T17:51:42.039Z,1.38
2023-03-06T17:54:10.106Z,1.50
2023-03-06T17:56:38.892Z,0.95
2023-03-06T17:59:06.816Z,1.27
2023-03-06T18:01:34.945Z,1.20
2023-03-06T18:04:08.831Z,2.42
2023-03-06T18:06:38.623Z,1.88
2023-03-06T18:09:13.671Z,1.50
2023-03-06T18:11:42.239Z,1.40
2023-03-06T18:14:10.526Z,1.83
2023-03-06T18:16:38.575Z,2.35
2023-03-06T18:19:06.731Z,1.38
2023-03-06T18:21:34.642Z,1.58
2023-03-06T18:24:04.050Z,1.83
2023-03-06T18:26:32.140Z,1.58
2023-03-06T18:29:03.689Z,1.70
2023-03-06T18:31:34.714Z,1.95
2023-03-06T18:34:05.718Z,1.63
2023-03-06T18:36:34.310Z,2.10
2023-03-06T18:39:04.670Z,1.40
2023-03-06T18:41:33.121Z,1.67
2023-03-06T18:44:01.953Z,1.92
2023-03-06T18:46:32.291Z,2.00
2023-03-06T18:49:00.773Z,2.15
2023-03-06T18:51:29.104Z,2.63
2023-03-06T18:53:58.241Z,2.10
2023-03-06T18:56:27.555Z,3.58
2023-03-06T18:58:55.629Z,9.70
2023-03-06T19:01:24.204Z,1.90
2023-03-06T19:03:52.202Z,2.20
2023-03-06T19:06:20.247Z,1.92
2023-03-06T19:08:48.164Z,1.88
2023-03-06T19:11:18.017Z,2.15
2023-03-06T19:13:47.311Z,2.58
2023-03-06T19:16:19.598Z,2.28
2023-03-06T19:18:47.763Z,2.90
2023-03-06T19:21:17.585Z,2.63
2023-03-06T19:23:45.968Z,2.10
2023-03-06T19:26:15.135Z,2.15
2023-03-06T19:28:44.229Z,2.95
2023-03-06T19:31:16.163Z,2.70
2023-03-06T19:33:44.243Z,2.28
2023-03-06T19:36:14.384Z,2.30
2023-03-06T19:38:42.461Z,2.83
2023-03-06T19:41:13.579Z,2.42
2023-03-06T19:43:42.470Z,3.10
2023-03-06T19:46:14.227Z,2.88
2023-03-06T19:48:42.436Z,2.80
2023-03-06T19:51:18.138Z,2.88
2023-03-06T19:53:46.161Z,2.65
2023-03-06T19:56:18.783Z,3.35
2023-03-06T19:58:46.780Z,4.85
2023-03-06T20:01:17.834Z,2.67
2023-03-06T20:03:50.494Z,3.08
2023-03-06T20:06:22.159Z,4.25
2023-03-06T20:08:50.280Z,4.88
2023-03-06T20:11:19.110Z,3.13
2023-03-06T20:13:47.904Z,4.10
2023-03-06T20:16:17.815Z,3.25
2023-03-06T20:18:46.451Z,4.07
2023-03-06T20:21:17.309Z,3.92
2023-03-06T20:23:45.304Z,3.15
2023-03-06T20:26:14.839Z,5.07
2023-03-06T20:28:43.627Z,5.22
2023-03-06T20:31:14.230Z,4.30
2023-03-06T20:33:44.278Z,5.20
2023-03-06T20:36:13.950Z,4.18
2023-03-06T20:38:41.978Z,4.55
2023-03-06T20:41:15.269Z,4.38
2023-03-06T20:43:43.446Z,4.68
2023-03-06T20:46:13.313Z,3.83
2023-03-06T20:48:42.974Z,6.70
2023-03-06T20:51:17.408Z,6.20
2023-03-06T20:53:45.553Z,4.57
2023-03-06T20:56:14.314Z,3.78
2023-03-06T20:58:44.345Z,3.95
2023-03-06T21:01:19.394Z,3.72
2023-03-06T21:03:49.221Z,3.45
2023-03-06T21:06:17.727Z,3.92
2023-03-06T21:08:45.900Z,4.75
2023-03-06T21:11:14.314Z,3.47
2023-03-06T21:13:42.705Z,3.25
2023-03-06T21:16:17.943Z,3.75
2023-03-06T21:18:46.299Z,3.72
2023-03-06T21:21:20.807Z,3.95
2023-03-06T21:23:49.717Z,4.03
2023-03-06T21:26:19.768Z,3.97
2023-03-06T21:28:47.796Z,4.35
2023-03-06T21:31:17.687Z,4.15
2023-03-06T21:33:46.669Z,3.55
2023-03-06T21:36:16.711Z,4.20
2023-03-06T21:38:44.580Z,4.40
2023-03-06T21:41:14.986Z,4.05
2023-03-06T21:43:43.194Z,4.72
2023-03-06T21:46:11.434Z,4.63
2023-03-06T21:48:39.953Z,4.20
2023-03-06T21:51:09.996Z,4.72
2023-03-06T21:53:43.288Z,4.90
2023-03-06T21:56:11.876Z,4.78
2023-03-06T21:58:40.318Z,4.28
2023-03-06T22:01:12.168Z,4.22
2023-03-06T22:03:40.504Z,3.70
2023-03-06T22:06:13.474Z,4.10
2023-03-06T22:08:43.366Z,4.63
2023-03-06T22:11:14.349Z,3.50
2023-03-06T22:13:42.474Z,4.18
2023-03-06T22:16:10.797Z,4.63
2023-03-06T22:18:39.804Z,4.15
2023-03-06T22:21:08.919Z,4.28
2023-03-06T22:23:36.913Z,3.67
2023-03-06T22:26:07.930Z,4.22
2023-03-06T22:28:36.389Z,4.25
2023-03-06T22:31:07.202Z,3.42
2023-03-06T22:33:35.172Z,4.07
2023-03-06T22:36:06.199Z,3.67
2023-03-06T22:38:35.550Z,3.25
2023-03-06T22:41:04.437Z,3.83
2023-03-06T22:43:34.641Z,4.43
2023-03-06T22:46:03.662Z,3.80
2023-03-06T22:48:32.399Z,4.05
2023-03-06T22:51:05.901Z,3.53
2023-03-06T22:53:34.677Z,3.78
2023-03-06T22:56:04.833Z,4.03
2023-03-06T22:58:37.196Z,3.75
2023-03-06T23:01:10.226Z,3.60
2023-03-06T23:03:39.652Z,4.25
2023-03-06T23:06:08.902Z,4.65
2023-03-06T23:08:37.011Z,4.35
2023-03-06T23:11:09.909Z,4.00
2023-03-06T23:13:57.931Z,3.65
2023-03-06T23:16:44.643Z,3.72
2023-03-06T23:19:31.616Z,4.15
2023-03-06T23:22:18.401Z,4.18
2023-03-06T23:25:05.945Z,4.47
2023-03-06T23:27:36.223Z,4.43
2023-03-06T23:30:06.426Z,3.72
2023-03-06T23:32:34.659Z,3.15
2023-03-06T23:35:02.849Z,4.20
2023-03-06T23:37:30.940Z,7.82
2023-03-06T23:39:59.123Z,4.00
2023-03-06T23:42:27.014Z,5.30
2023-03-06T23:44:55.165Z,3.38
2023-03-06T23:47:24.459Z,3.45
2023-03-06T23:49:52.365Z,3.45
2023-03-06T23:52:20.213Z,3.58
2023-03-06T23:54:49.737Z,4.00
2023-03-06T23:57:17.658Z,2.78
2023-03-06T23:59:46.152Z,3.53
